Fecha, hora, temperatura, viento dirección y velocidad, humedad y presión.

  • 16-01-2019 17:00:00 | 12.40°C | Oeste |8.00 km/h | 78.00% | 1012.40 hPa
  • 16-01-2019 16:00:00 | 14.10°C | Noroeste |12.00 km/h | 67.00% | 1012.00 hPa
  • 16-01-2019 15:00:00 | 15.10°C | Sudoeste |3.00 km/h | 59.00% | 1011.90 hPa
  • 16-01-2019 14:00:00 | 13.70°C | Oeste |6.00 km/h | 60.00% | 1012.30 hPa
  • 16-01-2019 13:00:00 | 13.40°C | Oeste |6.00 km/h | 61.00% | 1012.80 hPa
  • 16-01-2019 12:00:00 | 12.60°C | Oeste |6.00 km/h | 70.00% | 1013.20 hPa
  • 16-01-2019 11:00:00 | 9.40°C | Sur |4.00 km/h | 88.00% | 1013.30 hPa
  • 16-01-2019 10:00:00 | 4.50°C | Sudeste |4.00 km/h | 100.00% | 1013.30 hPa
  • 16-01-2019 09:00:00 | 2.90°C | Norte |4.00 km/h | 100.00% | 1013.30 hPa
  • 16-01-2019 08:00:00 | 3.00°C | Nordeste |2.00 km/h | 100.00% | 1013.00 hPa
  • 16-01-2019 07:00:00 | 3.10°C | Calma |0.00 km/h | 100.00% | 1012.90 hPa
  • 16-01-2019 05:00:00 | 0.90°C | Sudeste |3.00 km/h | 100.00% | 1013.30 hPa
  • 16-01-2019 05:00:00 | 0.90°C | Sudeste |3.00 km/h | 100.00% | 1013.30 hPa
  • 16-01-2019 04:00:00 | 1.00°C | Sudeste |5.00 km/h | 100.00% | 1013.50 hPa
  • 16-01-2019 03:00:00 | 1.10°C | Sudeste |7.00 km/h | 99.00% | 1013.70 hPa
  • 16-01-2019 02:00:00 | 1.40°C | Sudeste |5.00 km/h | 99.00% | 1013.90 hPa
  • 16-01-2019 01:00:00 | 1.90°C | Este |3.00 km/h | 99.00% | 1014.40 hPa
  • 16-01-2019 00:00:00 | 2.10°C | Sudeste |4.00 km/h | 99.00% | 1015.00 hPa
  • 15-01-2019 23:00:00 | 2.60°C | Sudeste |3.00 km/h | 97.00% | 1015.20 hPa
  • 15-01-2019 22:00:00 | 3.50°C | Sudeste |3.00 km/h | 97.00% | 1015.10 hPa
  • 15-01-2019 21:00:00 | 4.60°C | Sudeste |6.00 km/h | 96.00% | 1015.30 hPa
  • 15-01-2019 20:00:00 | 6.00°C | Sudeste |5.00 km/h | 90.00% | 1015.40 hPa
  • 15-01-2019 19:00:00 | 8.80°C | Este |5.00 km/h | 85.00% | 1015.40 hPa
  • 15-01-2019 18:00:00 | 10.20°C | Este |8.00 km/h | 79.00% | 1015.40 hPa
    • Información sobre el estado de las mareas, altura de la marejada, temperatura del agua y otros datos de Gijón en Asturias.

      Surf Gijón